Time;durP1;ratioP1;P1;durP2;ratioP2;P2;SDS_P1;SDS_P2;PMS_P1;PMS_P2;Temp;Humidity;BMP_temperature;BMP_pressure;BME280_temperature;BME280_humidity;BME280_pressure;Samples;Min_cycle;Max_cycle;Signal;HPM_P1;HPM_P2
2021/07/03 00:01:08;;;;;;;10.23;6.35;;;;;;;11.56;100.00;98004.38;5040144;28;20182;-82
2021/07/03 00:03:37;;;;;;;14.65;6.28;;;;;;;11.64;100.00;97996.25;5038128;28;20046;-82
2021/07/03 00:06:04;;;;;;;10.75;6.63;;;;;;;11.46;100.00;97988.38;5020064;28;20048;-82
2021/07/03 00:08:31;;;;;;;11.18;6.65;;;;;;;11.36;100.00;97994.03;5037778;28;20045;-81
2021/07/03 00:11:03;;;;;;;21.67;7.95;;;;;;;11.33;100.00;97989.28;5037751;28;20050;-80
2021/07/03 00:13:29;;;;;;;21.00;8.05;;;;;;;11.28;100.00;98001.81;5019089;28;20111;-80
2021/07/03 00:15:57;;;;;;;14.07;8.25;;;;;;;11.34;100.00;98001.69;5020737;28;20061;-80
2021/07/03 00:18:24;;;;;;;22.25;7.78;;;;;;;11.21;100.00;97996.06;5018800;28;20472;-80
2021/07/03 00:20:51;;;;;;;23.15;8.05;;;;;;;11.27;100.00;98002.16;5019817;28;20509;-81
2021/07/03 00:23:20;;;;;;;18.27;7.85;;;;;;;11.26;100.00;98000.53;4987113;28;20421;-80
2021/07/03 00:25:46;;;;;;;15.05;6.22;;;;;;;11.27;100.00;97994.81;5018325;28;20046;-82
2021/07/03 00:28:13;;;;;;;15.45;6.40;;;;;;;11.24;100.00;97991.91;5037529;28;20492;-80
2021/07/03 00:30:40;;;;;;;11.85;5.72;;;;;;;11.18;100.00;97983.13;5034600;28;20501;-82
2021/07/03 00:33:07;;;;;;;14.27;5.93;;;;;;;11.21;100.00;97987.13;5033616;28;20087;-80
2021/07/03 00:35:34;;;;;;;15.02;5.53;;;;;;;11.19;100.00;97981.22;5032776;28;20042;-79
2021/07/03 00:38:01;;;;;;;13.10;6.13;;;;;;;11.20;100.00;97978.19;5033336;28;20037;-81
2021/07/03 00:40:29;;;;;;;8.75;5.35;;;;;;;11.19;100.00;97989.34;5034406;28;20041;-80
2021/07/03 00:42:56;;;;;;;11.68;5.50;;;;;;;11.19;100.00;97981.22;5036456;28;20579;-81
2021/07/03 00:45:23;;;;;;;10.45;5.70;;;;;;;11.17;100.00;97978.78;5038653;28;20046;-80
2021/07/03 00:47:51;;;;;;;12.93;6.25;;;;;;;11.17;100.00;97983.44;5018396;28;20045;-81
2021/07/03 00:50:17;;;;;;;13.82;6.32;;;;;;;11.17;100.00;97980.72;5034135;28;20053;-83
2021/07/03 00:52:44;;;;;;;9.18;5.72;;;;;;;11.16;100.00;97981.81;5035658;28;20502;-81
2021/07/03 00:55:11;;;;;;;11.13;5.20;;;;;;;11.24;100.00;97983.78;5036240;28;20041;-79
2021/07/03 00:57:38;;;;;;;14.93;5.95;;;;;;;11.22;100.00;97983.31;5003231;28;20053;-82
2021/07/03 01:00:06;;;;;;;12.18;5.85;;;;;;;11.16;100.00;97981.81;5002782;28;20075;-80
2021/07/03 01:02:33;;;;;;;14.48;5.63;;;;;;;11.16;100.00;97982.63;5038702;28;20067;-81
2021/07/03 01:04:59;;;;;;;9.00;5.75;;;;;;;11.16;100.00;97974.50;5020867;28;20040;-81
2021/07/03 01:07:27;;;;;;;10.45;5.75;;;;;;;11.15;100.00;97977.50;5021072;28;20046;-81
2021/07/03 01:09:54;;;;;;;11.70;5.80;;;;;;;11.09;100.00;97976.84;5019228;28;20045;-82
2021/07/03 01:12:20;;;;;;;11.25;6.38;;;;;;;11.12;100.00;97978.94;5039447;28;20052;-80
2021/07/03 01:14:49;;;;;;;14.77;6.40;;;;;;;11.16;100.00;97974.50;5038746;28;20371;-77
2021/07/03 01:17:18;;;;;;;11.98;6.30;;;;;;;11.13;100.00;97977.03;5039887;28;20055;-82
2021/07/03 01:19:45;;;;;;;9.73;5.70;;;;;;;11.05;100.00;97966.94;5045798;28;20051;-78
2021/07/03 01:22:13;;;;;;;17.02;6.43;;;;;;;10.90;100.00;97968.13;5040076;28;20049;-80
2021/07/03 01:24:43;;;;;;;23.05;7.88;;;;;;;10.58;100.00;97966.44;5020218;28;20041;-80
2021/07/03 01:27:12;;;;;;;15.10;7.25;;;;;;;10.62;100.00;97972.06;5020863;28;20041;-81
2021/07/03 01:29:38;;;;;;;17.52;7.97;;;;;;;10.70;100.00;97967.81;5039134;28;20099;-82
2021/07/03 01:32:05;;;;;;;13.68;8.10;;;;;;;10.73;100.00;97968.00;5005113;28;20052;-79
2021/07/03 01:34:32;;;;;;;15.82;7.40;;;;;;;10.81;100.00;97967.28;5020890;28;20046;-80
2021/07/03 01:36:59;;;;;;;21.67;6.97;;;;;;;10.62;100.00;97962.03;5020798;28;20065;-80
2021/07/03 01:39:27;;;;;;;21.50;8.60;;;;;;;10.60;100.00;97960.75;5019996;28;20045;-80
2021/07/03 01:41:55;;;;;;;24.33;8.25;;;;;;;10.58;100.00;97962.94;5037258;28;20041;-81
2021/07/03 01:44:27;;;;;;;16.88;8.13;;;;;;;10.62;100.00;97963.94;5018669;28;20108;-80
2021/07/03 01:46:59;;;;;;;19.85;7.80;;;;;;;10.63;100.00;97958.19;5038951;28;20033;-80
2021/07/03 01:49:36;;;;;;;15.82;7.68;;;;;;;10.57;100.00;97958.63;5019301;28;20152;-79
2021/07/03 01:52:03;;;;;;;22.20;7.70;;;;;;;10.51;100.00;97949.03;5019099;28;20056;-82
2021/07/03 01:54:29;;;;;;;20.77;7.50;;;;;;;10.50;100.00;97950.16;5018066;28;20045;-82
2021/07/03 01:56:59;;;;;;;18.08;6.95;;;;;;;10.51;100.00;97940.91;5017411;28;20115;-81
2021/07/03 01:59:30;;;;;;;20.67;7.88;;;;;;;10.37;100.00;97940.16;5015959;28;20053;-80
2021/07/03 02:01:58;;;;;;;15.27;8.00;;;;;;;10.37;100.00;97940.16;5018619;28;20520;-79
2021/07/03 02:04:25;;;;;;;19.55;7.85;;;;;;;10.37;100.00;97953.69;5017520;28;20037;-79
2021/07/03 02:06:51;;;;;;;15.02;7.80;;;;;;;10.30;100.00;97937.88;5001918;28;20052;-82
2021/07/03 02:09:18;;;;;;;18.52;7.75;;;;;;;10.29;100.00;97933.56;5035636;28;20049;-81
2021/07/03 02:11:45;;;;;;;21.70;8.40;;;;;;;10.17;100.00;97933.28;5001670;28;20117;-82
2021/07/03 02:14:13;;;;;;;13.85;8.20;;;;;;;10.12;100.00;97929.88;5017221;28;20060;-84
2021/07/03 02:16:40;;;;;;;20.73;8.90;;;;;;;10.03;100.00;97933.31;5001978;28;20033;-80
2021/07/03 02:19:08;;;;;;;17.83;9.35;;;;;;;10.07;100.00;97933.47;5036095;28;20416;-81
2021/07/03 02:21:35;;;;;;;21.45;10.25;;;;;;;9.95;100.00;97922.41;5028811;22;20145;-84
2021/07/03 02:24:04;;;;;;;22.75;9.63;;;;;;;10.02;100.00;97918.19;4991865;28;20494;-84
2021/07/03 02:26:33;;;;;;;23.90;10.00;;;;;;;10.01;100.00;97929.31;4991045;28;20290;-83
2021/07/03 02:29:00;;;;;;;21.02;10.63;;;;;;;9.99;100.00;97937.72;4974046;28;20042;-82
2021/07/03 02:31:27;;;;;;;25.95;11.07;;;;;;;9.99;100.00;97934.19;4974078;28;20295;-83
2021/07/03 02:33:54;;;;;;;21.50;11.98;;;;;;;10.02;100.00;97929.00;4990093;28;20045;-83
2021/07/03 02:36:20;;;;;;;18.83;10.43;;;;;;;10.10;100.00;97937.50;4973024;28;20668;-83
2021/07/03 02:38:47;;;;;;;19.38;11.13;;;;;;;10.02;100.00;97939.00;4972397;28;20727;-82
2021/07/03 02:41:14;;;;;;;20.02;10.13;;;;;;;10.03;100.00;97941.44;4972905;28;20050;-82
2021/07/03 02:43:41;;;;;;;19.52;10.55;;;;;;;9.95;100.00;97941.31;4971007;28;20122;-84
2021/07/03 02:46:08;;;;;;;19.65;10.35;;;;;;;9.92;100.00;97948.16;4974184;28;20141;-85
2021/07/03 02:48:35;;;;;;;25.52;11.10;;;;;;;9.77;100.00;97939.53;4974125;28;20042;-83
2021/07/03 02:51:03;;;;;;;18.30;9.55;;;;;;;9.77;100.00;97934.13;4973809;28;20495;-84
2021/07/03 02:53:31;;;;;;;110.10;13.40;;;;;;;9.65;100.00;97931.94;4956408;28;20108;-84
2021/07/03 02:55:59;;;;;;;23.20;11.90;;;;;;;9.60;100.00;97923.16;4989551;28;20479;-85
2021/07/03 02:58:26;;;;;;;19.55;10.98;;;;;;;9.68;100.00;97920.53;4988792;28;20042;-84
2021/07/03 03:00:57;;;;;;;20.92;11.07;;;;;;;9.78;100.00;97938.47;4971942;28;20665;-84
2021/07/03 03:03:32;;;;;;;25.77;10.98;;;;;;;9.54;100.00;97914.34;4956017;28;20507;-83
2021/07/03 03:06:02;;;;;;;23.17;10.77;;;;;;;9.55;100.00;97915.91;4971519;28;20046;-83
2021/07/03 03:08:34;;;;;;;20.67;10.48;;;;;;;9.46;100.00;97912.34;4954584;28;20075;-84
2021/07/03 03:11:09;;;;;;;21.02;11.13;;;;;;;9.57;100.00;97919.16;4970478;28;20120;-83
2021/07/03 03:13:51;;;;;;;23.42;10.65;;;;;;;9.43;100.00;97915.63;4972680;28;20133;-83
2021/07/03 03:16:19;;;;;;;19.95;9.68;;;;;;;9.42;100.00;97916.72;4971019;28;20506;-83
2021/07/03 03:18:50;;;;;;;94.57;11.90;;;;;;;9.39;100.00;97920.06;4970894;28;20128;-83
2021/07/03 03:21:19;;;;;;;15.55;11.18;;;;;;;9.65;100.00;97942.75;4955345;28;20046;-83
2021/07/03 03:23:46;;;;;;;18.20;11.25;;;;;;;9.73;100.00;97950.16;4988687;28;20046;-85
2021/07/03 03:26:14;;;;;;;22.75;11.73;;;;;;;9.64;100.00;97953.88;4956130;28;20054;-85
2021/07/03 03:28:42;;;;;;;18.45;10.90;;;;;;;9.55;100.00;97963.78;4954759;28;20053;-84
2021/07/03 03:31:09;;;;;;;18.38;11.52;;;;;;;9.57;100.00;97954.28;4956892;28;20046;-84
2021/07/03 03:33:37;;;;;;;19.52;10.50;;;;;;;9.59;100.00;97959.38;4956926;28;20105;-84
2021/07/03 03:36:15;;;;;;;25.58;11.45;;;;;;;9.54;100.00;97954.88;4972244;28;20046;-83
2021/07/03 03:38:44;;;;;;;27.88;11.65;;;;;;;9.51;100.00;97963.59;4955747;28;20538;-83
2021/07/03 03:41:16;;;;;;;19.58;10.10;;;;;;;9.38;100.00;97940.06;4989877;28;20042;-83
2021/07/03 03:43:52;;;;;;;19.95;9.80;;;;;;;9.63;100.00;97961.16;4973288;28;20411;-84
2021/07/03 03:46:25;;;;;;;16.20;9.88;;;;;;;9.54;100.00;97927.03;4974159;28;20152;-82
2021/07/03 03:49:01;;;;;;;17.25;10.10;;;;;;;9.78;100.00;97950.06;4971026;28;20043;-84
2021/07/03 03:51:34;;;;;;;19.80;9.88;;;;;;;9.69;100.00;97929.44;4990360;28;20049;-83
2021/07/03 03:54:14;;;;;;;14.30;10.27;;;;;;;9.73;100.00;97950.16;4956778;28;20042;-84
2021/07/03 03:57:39;;;;;;;16.85;9.98;;;;;;;9.61;100.00;97919.31;4972990;28;20144;-84
2021/07/03 03:59:55;;;;;;;15.93;9.48;;;;;;;9.92;100.00;97950.84;4987753;28;20054;-84
2021/07/03 04:02:27;;;;;;;16.08;9.10;;;;;;;9.86;100.00;97927.72;4973910;28;20089;-84
2021/07/03 04:05:04;;;;;;;12.20;8.02;;;;;;;9.87;100.00;97928.53;4975206;28;20050;-84
2021/07/03 04:07:37;;;;;;;15.07;8.88;;;;;;;9.94;100.00;97937.00;4960423;28;20038;-85
2021/07/03 04:10:20;;;;;;;12.35;8.40;;;;;;;10.10;100.00;97926.66;4946896;28;20478;-85
2021/07/03 04:13:03;;;;;;;13.68;7.90;;;;;;;10.26;100.00;97952.31;4977678;28;20050;-84
2021/07/03 04:15:36;;;;;;;20.80;8.77;;;;;;;10.24;100.00;97938.28;4961698;28;20046;-84
2021/07/03 04:18:10;;;;;;;15.00;8.07;;;;;;;10.37;100.00;97953.69;4977485;28;20046;-84
2021/07/03 04:20:44;;;;;;;16.73;7.30;;;;;;;10.56;100.00;97965.16;4977070;28;20060;-84
2021/07/03 04:23:21;;;;;;;14.65;7.85;;;;;;;10.53;100.00;97946.81;4961349;28;20570;-84
2021/07/03 04:26:10;;;;;;;12.10;7.13;;;;;;;10.74;100.00;97949.81;4960878;28;20038;-84
2021/07/03 04:28:56;;;;;;;13.23;7.13;;;;;;;10.95;100.00;97962.56;4975793;28;20054;-84
2021/07/03 04:31:43;;;;;;;13.07;8.00;;;;;;;11.07;100.00;97953.91;4999805;28;20105;-84
2021/07/03 04:34:19;;;;;;;17.25;8.32;;;;;;;11.14;100.00;97949.63;4962432;28;20069;-84
2021/07/03 04:36:55;;;;;;;19.90;9.20;;;;;;;11.30;100.00;97957.38;4958292;28;20538;-83
2021/07/03 04:39:53;;;;;;;16.95;8.65;;;;;;;11.45;100.00;97956.94;4979399;28;20042;-82
2021/07/03 04:42:36;;;;;;;14.57;8.55;;;;;;;11.73;100.00;97967.31;4988526;28;20144;-81
2021/07/03 04:45:47;;;;;;;21.58;11.05;;;;;;;12.04;100.00;97956.38;4979334;28;20096;-84
2021/07/03 04:48:21;;;;;;;20.52;10.90;;;;;;;12.21;100.00;97945.53;4980791;28;20049;-83
2021/07/03 04:51:06;;;;;;;29.30;13.65;;;;;;;12.53;100.00;97936.16;4970484;28;20483;-84
2021/07/03 04:53:35;;;;;;;22.02;12.60;;;;;;;12.79;100.00;97939.66;4966470;28;20177;-83
2021/07/03 04:56:04;;;;;;;27.60;12.73;;;;;;;13.07;100.00;97929.25;4952130;28;20062;-83
2021/07/03 04:58:34;;;;;;;24.27;12.48;;;;;;;13.40;100.00;97943.03;4961414;28;20060;-84
2021/07/03 05:01:08;;;;;;;23.88;11.52;;;;;;;13.49;100.00;97924.78;4992512;28;20046;-83
2021/07/03 05:03:39;;;;;;;21.40;9.98;;;;;;;13.73;100.00;97947.56;4976191;28;20054;-83
2021/07/03 05:06:14;;;;;;;15.45;10.70;;;;;;;13.78;100.00;97930.25;4975856;28;20399;-83
2021/07/03 05:08:52;;;;;;;18.20;11.23;;;;;;;13.96;100.00;97933.69;4958298;28;20046;-83
2021/07/03 05:11:23;;;;;;;19.27;10.00;;;;;;;14.05;100.00;97946.09;4957071;28;20049;-83
2021/07/03 05:13:50;;;;;;;14.82;10.45;;;;;;;14.05;100.00;97928.97;4973330;28;20419;-83
2021/07/03 05:16:18;;;;;;;20.52;10.55;;;;;;;14.08;100.00;97931.03;4973231;28;20064;-83
2021/07/03 05:18:45;;;;;;;18.65;10.60;;;;;;;14.11;100.00;97927.66;4989067;28;20086;-82
2021/07/03 05:21:13;;;;;;;35.03;11.38;;;;;;;14.18;100.00;97922.47;4956395;28;20057;-83
2021/07/03 05:23:39;;;;;;;28.90;11.23;;;;;;;14.13;100.00;97928.13;4953953;28;20056;-83
2021/07/03 05:26:06;;;;;;;29.27;10.85;;;;;;;14.38;100.00;97948.16;4986534;28;20046;-84
2021/07/03 05:28:33;;;;;;;27.40;11.45;;;;;;;14.26;100.00;97944.22;4989966;28;20260;-84
2021/07/03 05:31:00;;;;;;;27.08;11.30;;;;;;;14.35;100.00;97949.63;4991980;28;20073;-84
2021/07/03 05:33:30;;;;;;;24.85;10.82;;;;;;;14.44;100.00;97939.47;4993569;28;20137;-83
2021/07/03 05:36:02;;;;;;;21.85;9.77;;;;;;;14.65;100.00;97931.28;4981593;28;20488;-84
2021/07/03 05:38:30;;;;;;;22.25;11.32;;;;;;;14.98;100.00;97926.66;4993135;28;20535;-84
2021/07/03 05:41:00;;;;;;;22.88;10.32;;;;;;;15.18;100.00;97933.16;4991527;28;20045;-83
2021/07/03 05:43:27;;;;;;;23.75;10.20;;;;;;;15.23;100.00;97927.50;4955248;28;20054;-82
2021/07/03 05:45:53;;;;;;;19.58;10.02;;;;;;;15.51;100.00;97929.28;4952991;28;20049;-83
2021/07/03 05:48:20;;;;;;;25.85;10.88;;;;;;;15.45;100.00;97933.38;4951653;28;20081;-83
2021/07/03 05:50:47;;;;;;;17.27;9.02;;;;;;;15.74;100.00;97931.59;4952027;28;20057;-83
2021/07/03 05:53:13;;;;;;;27.35;10.60;;;;;;;15.98;100.00;97931.56;4969909;28;20109;-83
2021/07/03 05:55:42;;;;;;;24.77;10.25;;;;;;;16.08;100.00;97918.25;4968814;28;20383;-84
2021/07/03 05:58:09;;;;;;;19.23;9.35;;;;;;;16.19;100.00;97922.13;4984030;28;20041;-82
2021/07/03 06:00:36;;;;;;;15.63;9.90;;;;;;;16.20;100.00;97915.53;4989841;28;20050;-83
2021/07/03 06:03:03;;;;;;;25.10;11.40;;;;;;;16.19;100.00;97922.13;4955250;28;20047;-84
2021/07/03 06:05:33;;;;;;;21.77;11.98;;;;;;;16.12;100.00;97919.16;4976216;28;20046;-83
2021/07/03 06:07:59;;;;;;;22.73;11.32;;;;;;;16.03;100.00;97931.34;4988829;28;20042;-83
2021/07/03 06:10:26;;;;;;;21.10;10.63;;;;;;;16.08;100.00;97929.19;4986498;28;20479;-83
2021/07/03 06:12:54;;;;;;;27.35;11.98;;;;;;;16.08;100.00;97926.44;4967170;28;20050;-82
2021/07/03 06:15:21;;;;;;;21.45;11.88;;;;;;;16.31;100.00;97924.00;4950485;28;20055;-83
2021/07/03 06:17:48;;;;;;;24.33;11.90;;;;;;;16.46;100.00;97925.25;4967242;28;20051;-83
2021/07/03 06:20:15;;;;;;;20.63;11.27;;;;;;;16.38;100.00;97918.78;4964568;28;20447;-82
2021/07/03 06:22:42;;;;;;;16.90;11.50;;;;;;;16.39;100.00;97911.38;4969835;28;20070;-82
2021/07/03 06:25:13;;;;;;;22.55;11.50;;;;;;;16.36;100.00;97915.59;4951073;28;20449;-83
2021/07/03 06:27:40;;;;;;;24.48;11.75;;;;;;;16.37;100.00;97906.25;4982624;28;20079;-82
2021/07/03 06:30:09;;;;;;;19.83;12.15;;;;;;;16.44;100.00;97902.94;4954225;28;20172;-82
2021/07/03 06:32:36;;;;;;;22.80;12.25;;;;;;;16.49;100.00;97899.97;4951241;28;20506;-82
2021/07/03 06:35:05;;;;;;;19.13;11.25;;;;;;;16.61;100.00;97899.94;4968637;28;20427;-83
2021/07/03 06:37:32;;;;;;;22.77;10.95;;;;;;;16.77;100.00;97903.53;4950786;28;20163;-82
2021/07/03 06:39:59;;;;;;;20.20;11.02;;;;;;;17.12;100.00;97900.94;4967070;28;20150;-82
2021/07/03 06:42:26;;;;;;;16.10;10.75;;;;;;;17.35;100.00;97891.00;4968945;28;20073;-82
2021/07/03 06:44:52;;;;;;;19.40;10.65;;;;;;;17.54;100.00;97888.41;4967836;28;20054;-82
2021/07/03 06:47:20;;;;;;;19.50;10.90;;;;;;;17.67;100.00;97889.09;4968694;28;20042;-82
2021/07/03 06:49:47;;;;;;;16.08;10.10;;;;;;;17.66;100.00;97887.50;4950505;28;20113;-83
2021/07/03 06:52:14;;;;;;;17.08;10.30;;;;;;;17.58;100.00;97891.19;4935567;28;20058;-83
2021/07/03 06:54:41;;;;;;;14.13;8.98;;;;;;;17.57;100.00;97878.69;4950304;28;20046;-82
2021/07/03 06:57:09;;;;;;;15.68;10.07;;;;;;;17.61;100.00;97880.34;4975805;28;20038;-84
2021/07/03 06:59:35;;;;;;;22.92;10.25;;;;;;;17.62;100.00;97870.19;4970566;28;20046;-84
2021/07/03 07:02:03;;;;;;;22.10;10.10;;;;;;;17.70;100.00;97874.69;4964167;28;20474;-82
2021/07/03 07:04:32;;;;;;;14.77;9.73;;;;;;;17.76;100.00;97878.72;4966456;28;20042;-82
2021/07/03 07:06:58;;;;;;;20.13;10.35;;;;;;;17.90;100.00;97871.66;4958347;28;20212;-83
2021/07/03 07:09:26;;;;;;;16.90;10.20;;;;;;;17.91;100.00;97881.44;4965599;28;20141;-84
2021/07/03 07:11:57;;;;;;;14.30;9.75;;;;;;;17.86;100.00;97867.25;4966777;28;20054;-84
2021/07/03 07:14:24;;;;;;;17.10;9.90;;;;;;;18.01;100.00;97869.16;4984392;28;20050;-82
2021/07/03 07:16:51;;;;;;;14.25;9.15;;;;;;;18.27;100.00;97852.13;4994039;28;20046;-83
2021/07/03 07:19:17;;;;;;;15.90;9.38;;;;;;;18.26;100.00;97861.47;4969697;28;20467;-80
2021/07/03 07:21:44;;;;;;;20.08;9.60;;;;;;;18.19;100.00;97858.59;4986439;28;20057;-82
2021/07/03 07:24:11;;;;;;;14.55;9.68;;;;;;;18.37;100.00;97863.31;4978597;28;20050;-83
2021/07/03 07:26:38;;;;;;;15.45;9.48;;;;;;;18.50;100.00;97858.50;4986719;28;20182;-81
2021/07/03 07:29:05;;;;;;;15.18;9.02;;;;;;;18.87;100.00;97853.31;4985862;28;20061;-81
2021/07/03 07:31:33;;;;;;;19.63;8.98;;;;;;;19.31;100.00;97849.03;4971291;28;20101;-81
2021/07/03 07:34:02;;;;;;;15.05;8.52;;;;;;;19.25;100.00;97850.53;4986809;28;20541;-81
2021/07/03 07:36:29;;;;;;;14.07;9.13;;;;;;;19.58;100.00;97845.22;4979991;28;20054;-81
2021/07/03 07:38:55;;;;;;;15.77;9.15;;;;;;;19.25;100.00;97845.03;4958953;28;20200;-81
2021/07/03 07:41:22;;;;;;;14.10;8.95;;;;;;;19.58;100.00;97850.72;4977559;28;20134;-81
2021/07/03 07:43:49;;;;;;;16.08;9.38;;;;;;;19.73;100.00;97854.47;4979063;28;20059;-82
2021/07/03 07:46:15;;;;;;;18.67;9.95;;;;;;;19.26;100.00;97852.09;4981207;28;20043;-82
2021/07/03 07:48:42;;;;;;;16.20;9.38;;;;;;;19.03;100.00;97851.28;4942120;28;20124;-82
2021/07/03 07:51:09;;;;;;;15.98;9.52;;;;;;;18.97;100.00;97855.50;4960935;28;20113;-82
2021/07/03 07:53:35;;;;;;;20.30;9.85;;;;;;;19.21;100.00;97844.16;4977911;28;20051;-82
2021/07/03 07:56:02;;;;;;;15.10;9.43;;;;;;;19.57;100.00;97846.38;4960051;28;20054;-81
2021/07/03 07:58:29;;;;;;;14.10;8.95;;;;;;;19.61;100.00;97844.50;4977184;28;20121;-83
2021/07/03 08:00:58;;;;;;;16.27;9.77;;;;;;;19.22;100.00;97838.31;4958956;28;20090;-82
2021/07/03 08:03:25;;;;;;;15.80;9.07;;;;;;;19.44;100.00;97831.25;4959551;28;20130;-79
2021/07/03 08:05:51;;;;;;;19.88;10.25;;;;;;;19.72;100.00;97839.13;4988261;28;20076;-82
2021/07/03 08:08:19;;;;;;;16.70;9.13;;;;;;;20.11;100.00;97832.25;4990555;28;20105;-80
2021/07/03 08:10:45;;;;;;;15.88;9.32;;;;;;;20.55;100.00;97835.19;4987157;28;20515;-82
2021/07/03 08:13:12;;;;;;;13.57;8.23;;;;;;;20.34;100.00;97843.19;4969162;28;20046;-83
2021/07/03 08:15:39;;;;;;;16.50;10.30;;;;;;;20.20;100.00;97835.53;4988525;28;20054;-83
2021/07/03 08:18:06;;;;;;;15.45;9.95;;;;;;;19.72;100.00;97828.94;4937391;28;20402;-82
2021/07/03 08:23:07;;;;;;;16.10;10.00;;;;;;;19.26;100.00;97822.69;5014072;28;20054;-80
2021/07/03 08:25:34;;;;;;;18.80;9.75;;;;;;;19.79;100.00;97834.56;5021299;28;20498;-81
2021/07/03 08:28:01;;;;;;;18.85;9.45;;;;;;;20.13;100.00;97835.41;5005231;28;20054;-81
2021/07/03 08:30:29;;;;;;;16.15;9.60;;;;;;;20.57;100.00;97824.59;4997393;28;20050;-81
2021/07/03 08:32:55;;;;;;;11.18;7.68;;;;;;;20.48;100.00;97827.66;4990298;28;20045;-79
2021/07/03 08:35:22;;;;;;;16.73;8.15;;;;;;;20.74;100.00;97824.03;5001367;28;20084;-80
2021/07/03 08:37:49;;;;;;;11.15;6.22;;;;;;;20.60;100.00;97823.84;5016571;28;20046;-81
2021/07/03 08:40:16;;;;;;;9.27;5.95;;;;;;;20.46;100.00;97818.22;5013507;28;20084;-81
2021/07/03 08:42:45;;;;;;;14.10;6.45;;;;;;;20.63;100.00;97822.31;5004626;28;20042;-80
2021/07/03 08:45:13;;;;;;;11.63;5.75;;;;;;;20.94;100.00;97819.91;5009991;28;20050;-79
2021/07/03 08:47:41;;;;;;;16.85;6.80;;;;;;;21.15;100.00;97822.13;4979437;28;20121;-81
2021/07/03 08:50:10;;;;;;;8.90;6.10;;;;;;;21.04;100.00;97824.72;4994117;28;20117;-79
2021/07/03 08:52:36;;;;;;;7.57;5.47;;;;;;;20.56;100.00;97817.53;5003427;28;20057;-81
2021/07/03 08:55:19;;;;;;;9.93;5.70;;;;;;;20.71;100.00;97808.28;5009736;28;20404;-80
2021/07/03 08:58:15;;;;;;;8.80;5.70;;;;;;;20.54;100.00;97814.38;4998016;28;20042;-80
2021/07/03 09:00:44;;;;;;;10.00;5.88;;;;;;;21.07;100.00;97812.19;4984329;28;20081;-80
2021/07/03 09:03:22;;;;;;;12.48;5.78;;;;;;;21.38;100.00;97810.91;4998873;28;20120;-80
2021/07/03 09:05:56;;;;;;;6.28;4.65;;;;;;;21.85;100.00;97805.34;4995661;28;20507;-80
2021/07/03 09:08:25;;;;;;;7.45;4.70;;;;;;;21.00;100.00;97801.09;4973744;28;20609;-80
2021/07/03 09:11:04;;;;;;;9.02;4.93;;;;;;;20.32;100.00;97813.31;4996229;28;20061;-80
2021/07/03 09:13:32;;;;;;;7.43;4.97;;;;;;;20.21;100.00;97822.53;5009227;28;20107;-80
2021/07/03 09:15:59;;;;;;;11.52;4.90;;;;;;;20.96;100.00;97816.78;4974267;28;20047;-80
2021/07/03 09:18:31;;;;;;;6.20;4.25;;;;;;;21.52;99.42;97800.78;4976333;28;20059;-80
2021/07/03 09:21:00;;;;;;;8.18;5.13;;;;;;;21.74;100.00;97799.75;4975494;28;20057;-79
2021/07/03 09:23:35;;;;;;;10.77;5.95;;;;;;;21.15;100.00;97813.84;5003779;28;20066;-81
2021/07/03 09:26:04;;;;;;;8.75;5.22;;;;;;;20.96;100.00;97820.31;5014158;28;20053;-78
2021/07/03 09:28:36;;;;;;;9.40;5.88;;;;;;;20.26;100.00;97819.53;4997851;28;20108;-80
2021/07/03 09:31:04;;;;;;;9.88;6.68;;;;;;;20.14;100.00;97825.22;5015050;28;20042;-80
2021/07/03 09:33:33;;;;;;;12.90;6.90;;;;;;;21.13;100.00;97818.94;4998035;28;20060;-80
2021/07/03 09:36:06;;;;;;;20.63;7.00;;;;;;;21.76;100.00;97812.38;4998156;28;20112;-81
2021/07/03 09:38:34;;;;;;;15.07;7.10;;;;;;;21.86;100.00;97817.97;4995975;28;20311;-79
2021/07/03 09:41:31;;;;;;;10.70;6.60;;;;;;;22.72;100.00;97806.19;5017014;28;20056;-80
2021/07/03 09:44:01;;;;;;;8.68;6.35;;;;;;;23.90;100.00;97801.13;4995610;28;20695;-80
2021/07/03 09:46:36;;;;;;;12.05;6.07;;;;;;;22.53;100.00;97804.50;5021624;28;20129;-79
2021/07/03 09:49:06;;;;;;;;;;;;;;;21.81;100.00;97807.28;5027441;28;20053;-81
2021/07/03 09:51:40;;;;;;;7.47;5.22;;;;;;;21.06;100.00;97808.66;5031885;28;20498;-79
2021/07/03 09:54:09;;;;;;;8.68;4.32;;;;;;;20.89;100.00;97800.19;4991814;28;20245;-81
2021/07/03 09:56:37;;;;;;;6.57;4.57;;;;;;;20.87;100.00;97806.09;4975557;28;20054;-81
2021/07/03 09:59:04;;;;;;;8.27;5.18;;;;;;;20.89;100.00;97801.00;4995066;28;20045;-79
2021/07/03 10:01:40;;;;;;;9.30;6.13;;;;;;;22.92;100.00;97786.09;5016814;28;20056;-80
2021/07/03 10:04:10;;;;;;;10.20;5.60;;;;;;;24.44;85.58;97791.50;5017039;28;20061;-79
2021/07/03 10:06:45;;;;;;;11.55;5.38;;;;;;;24.80;69.92;97789.38;5012558;28;20050;-79
2021/07/03 10:09:17;;;;;;;;;;;;;;;24.40;79.75;97792.69;5011005;28;20037;-80
2021/07/03 10:11:49;;;;;;;10.85;5.10;;;;;;;23.79;94.95;97783.00;5010210;28;20207;-80
2021/07/03 10:14:17;;;;;;;7.25;5.38;;;;;;;23.27;100.00;97790.91;5012729;28;20046;-79
2021/07/03 10:16:47;;;;;;;9.45;5.43;;;;;;;22.76;100.00;97790.44;5012235;28;20049;-79
2021/07/03 10:19:16;;;;;;;11.95;5.28;;;;;;;22.31;100.00;97797.34;5010619;28;20076;-80
2021/07/03 10:21:46;;;;;;;9.77;5.57;;;;;;;22.63;100.00;97787.25;4995355;28;20150;-80
2021/07/03 10:24:22;;;;;;;9.15;5.38;;;;;;;22.18;100.00;97782.31;5008894;28;20418;-80
2021/07/03 10:26:51;;;;;;;8.75;4.82;;;;;;;22.29;100.00;97794.97;5011692;28;20042;-77
2021/07/03 10:29:23;;;;;;;12.48;4.90;;;;;;;22.82;100.00;97786.09;5011400;28;20052;-81
2021/07/03 10:31:52;;;;;;;10.35;4.45;;;;;;;22.90;100.00;97787.69;4997269;28;20045;-80
2021/07/03 10:34:33;;;;;;;8.10;4.15;;;;;;;22.98;100.00;97781.00;5013780;28;20054;-80
2021/07/03 10:37:09;;;;;;;9.20;4.20;;;;;;;22.99;100.00;97785.34;5014329;28;20056;-80
2021/07/03 10:39:36;;;;;;;7.97;4.53;;;;;;;22.44;100.00;97786.75;5010770;28;20050;-80
2021/07/03 10:42:02;;;;;;;7.40;4.70;;;;;;;22.26;100.00;97790.22;5010467;28;20049;-80
2021/07/03 10:44:38;;;;;;;9.55;4.53;;;;;;;22.18;100.00;97791.38;4994796;28;20046;-79
2021/07/03 10:47:07;;;;;;;9.05;4.78;;;;;;;22.26;100.00;97794.94;5013364;28;20041;-80
2021/07/03 10:49:37;;;;;;;7.60;4.78;;;;;;;22.16;100.00;97792.94;5011309;28;20049;-80
2021/07/03 10:52:15;;;;;;;8.93;4.72;;;;;;;22.40;100.00;97797.00;5014943;28;20425;-80
2021/07/03 10:54:44;;;;;;;8.20;4.77;;;;;;;22.68;100.00;97791.59;5014740;28;20084;-80
2021/07/03 10:57:11;;;;;;;9.30;4.70;;;;;;;23.13;100.00;97782.59;5014776;28;20101;-81
2021/07/03 10:59:41;;;;;;;7.10;4.28;;;;;;;23.31;100.00;97779.81;5013920;28;20058;-80
2021/07/03 11:02:10;;;;;;;7.60;4.95;;;;;;;22.78;100.00;97777.81;5013752;28;20076;-80
2021/07/03 11:04:54;;;;;;;8.35;4.50;;;;;;;22.74;100.00;97778.97;5013336;28;20080;-81
2021/07/03 11:07:29;;;;;;;9.15;5.13;;;;;;;22.91;100.00;97781.00;5013124;28;20046;-82
2021/07/03 11:10:08;;;;;;;8.30;5.22;;;;;;;22.83;100.00;97782.94;4998280;28;20057;-83
2021/07/03 11:12:49;;;;;;;9.30;5.25;;;;;;;23.38;100.00;97772.34;4986433;28;20488;-81
2021/07/03 11:15:19;;;;;;;8.65;5.35;;;;;;;23.55;100.00;97768.81;4999429;28;20049;-81
2021/07/03 11:17:46;;;;;;;6.55;4.60;;;;;;;25.04;100.00;97774.56;4999503;28;20047;-82
2021/07/03 11:20:37;;;;;;;6.82;4.43;;;;;;;27.14;75.73;97771.88;4998669;28;20046;-81
2021/07/03 11:23:04;;;;;;;7.30;4.70;;;;;;;27.60;66.63;97768.38;4991856;28;20085;-82
2021/07/03 11:25:37;;;;;;;6.68;4.43;;;;;;;26.66;59.88;97766.59;5002187;28;20773;-82
2021/07/03 11:28:04;;;;;;;8.95;5.25;;;;;;;24.89;77.83;97773.09;4998650;28;20046;-82
2021/07/03 11:30:35;;;;;;;7.43;4.85;;;;;;;24.78;77.50;97759.31;4998420;28;20050;-82
2021/07/03 11:33:02;;;;;;;7.28;4.70;;;;;;;25.72;90.30;97761.75;4997876;28;20046;-83
2021/07/03 11:35:31;;;;;;;7.13;5.10;;;;;;;27.32;63.96;97752.94;5001121;28;20081;-84